Del Norte, CO (81132)

7:06 PM MDT on October 24, 2014 (GMT -0600)
HADS RIO GRANDE RIVER NEAR DEL NORTE CO US CODWR | Change Station
CLOSE
Current Station
Personal Weather Station
Location: Del Norte, CO
Elevation: 7979 ft
Nearby Weather Stations

Elev 7979 ft 37.69 °N, 106.46 °W | Updated 1 hour ago

Clear
Clear
61 °F
Feels Like 61 °F
N
Wind Variable Wind from North
Gusts 0.0 mph

Today
High -- | Low -- °F
--% Chance of Precip.
Yesterday
High -- | Low -- °F
Precip. -- in
7:22 AM 6:16 PM
New Moon, 1% visible
Pressure 30.25 in
Visibility 10.0 miles
Clouds Clear
Dew Point Not available.
Humidity Not available.
Rainfall 0.00 in
Snow Depth Not available.
UV 0 out of 12
Pollen 3.00 out of 12
Air Quality Not available.
Flu Activity Sporadic
METAR KALS 250052Z AUTO 02005KT 10SM CLR 14/M04 A3034 RMK AO2 SLP243 T01391044

More Conditions Fewer Conditions

Pressure 30.25 in
Visibility 10.0 miles
Clouds Clear
Dew Point Not available.
Humidity Not available.
Rainfall 0.00 in
Snow Depth Not available.
UV 0 out of 12
Pollen 3.00 out of 12
Air Quality Not available.
Flu Activity Sporadic
METAR KALS 250052Z AUTO 02005KT 10SM CLR 14/M04 A3034 RMK AO2 SLP243 T01391044

More Conditions Fewer Conditions

10-Day Weather Forecast

Almanac

Astronomy

Oct. 24, 2014 Rise Set
Actual Time 7:22 AM MDT 6:16 PM MDT
Civil Twilight 6:55 AM MDT 6:43 PM MDT
Nautical Twilight 6:25 AM MDT 7:13 PM MDT
Astronomical Twilight 5:54 AM MDT 7:44 PM MDT
Moon 8:03 AM MDT (10/24) 6:59 PM MDT (10/24)
Length of Visible Light 11h 47m
Length of Day
10h 53m
Tomorrow will be 2m 14s shorter.
New Moon, 1% of the Moon is Illuminated
Today
New Moon
Oct 30
First Quarter
Nov 6
Full
Nov 14
Last Quarter
Nov 22
New

Today's Extremes

State Highs State Lows

Community

WunderPhotos

Upload Photos

1,764,737 photos uploaded!

WunderBlogs® & News

Nearby

Snow Depth

Station Depth Elevation
Grayback 0 in 11620 ft
Upper San Juan 0 in 10130 ft
South Colony 0 in 10800 ft
Mineral Creek 0 in 10040 ft
Spud Mountain 0 in 10660 ft

Earthquake Activity

City Distance Mag. Time & Date
No recent earthquake activity has been reported nearby.
Minimum magnitude displayed is 2.5.

Coastal Water Temperatures

Place Temperature
No Stations Reporting

Nearby Weather Stations